Terminal Aerodrome Forecast
Issued by NWS

Home | Current Version | Previous Version | Text Only | Print | Product List | Glossary On
Versions: 1 2 3 4 5 6 7 8 9 10 11 12 13 14
000
FTUS43 KICT 302300
TAFHUT
TAF
KHUT 302332Z 0100/0124 18012G20KT P6SM VCSH BKN060
     FM010900 17013KT P6SM SCT060 BKN250
     FM011600 18015G22KT P6SM SCT060
     FM012100 21015G25KT P6SM FEW060=

USA.gov is the U.S. government's official web portal to all federal, state and local government web resources and services.